Time;durP1;ratioP1;P1;durP2;ratioP2;P2;SDS_P1;SDS_P2;PMS_P1;PMS_P2;Temp;Humidity;BMP_temperature;BMP_pressure;BME280_temperature;BME280_humidity;BME280_pressure;Samples;Min_cycle;Max_cycle;Signal;HPM_P1;HPM_P2
2023/06/23 00:01:32;;;;;;;3.15;2.00;;;23.20;77.40;;;;;;5093846;28;20536;-39
2023/06/23 00:03:59;;;;;;;2.45;1.90;;;;;;;;;;5093469;28;20401;-36
2023/06/23 00:06:27;;;;;;;2.42;1.98;;;23.80;76.90;;;;;;5093651;28;20409;-36
2023/06/23 00:08:54;;;;;;;2.90;2.15;;;23.10;64.20;;;;;;5093851;28;20134;-35
2023/06/23 00:11:21;;;;;;;2.78;2.40;;;;;;;;;;5093659;28;20056;-36
2023/06/23 00:13:49;;;;;;;3.30;2.20;;;23.20;76.50;;;;;;5093260;28;20054;-39
2023/06/23 00:16:16;;;;;;;3.30;2.20;;;23.00;76.80;;;;;;5093500;28;20127;-39
2023/06/23 00:18:44;;;;;;;3.35;2.45;;;22.70;76.80;;;;;;5093636;28;20054;-40
2023/06/23 00:21:11;;;;;;;2.90;2.08;;;23.40;77.10;;;;;;5093468;28;20117;-39
2023/06/23 00:23:39;;;;;;;3.13;2.05;;;;;;;;;;5086769;28;20051;-34
2023/06/23 00:26:07;;;;;;;3.05;2.38;;;;;;;;;;5073470;28;20048;-38
2023/06/23 00:28:34;;;;;;;2.55;2.00;;;23.70;62.40;;;;;;5073029;28;20498;-38
2023/06/23 00:31:01;;;;;;;3.03;2.40;;;22.90;76.80;;;;;;5073409;28;20136;-39
2023/06/23 00:33:28;;;;;;;3.13;2.10;;;;;;;;;;5072907;28;20050;-37
2023/06/23 00:35:56;;;;;;;2.83;2.17;;;22.90;76.50;;;;;;5073109;28;20076;-39
2023/06/23 00:38:25;;;;;;;3.63;2.22;;;23.20;76.60;;;;;;5093133;28;20126;-37
2023/06/23 00:40:51;;;;;;;4.38;2.25;;;23.40;76.80;;;;;;5078286;28;20493;-35
2023/06/23 00:43:19;;;;;;;3.90;2.25;;;;;;;;;;5072939;28;20148;-36
2023/06/23 00:45:45;;;;;;;3.35;2.10;;;23.50;77.00;;;;;;5071817;28;20123;-39
2023/06/23 00:48:14;;;;;;;2.70;2.00;;;22.40;76.10;;;;;;5072639;28;20055;-39
2023/06/23 00:50:41;;;;;;;3.13;1.95;;;;;;;;;;5091371;28;20052;-35
2023/06/23 00:53:09;;;;;;;2.75;1.92;;;23.40;77.50;;;;;;5092023;28;20075;-36
2023/06/23 00:55:37;;;;;;;3.65;2.30;;;;;;;;;;5092713;28;20560;-39
2023/06/23 00:58:05;;;;;;;2.75;2.22;;;23.70;77.00;;;;;;5093112;28;20087;-36
2023/06/23 01:00:31;;;;;;;2.90;1.90;;;23.30;74.80;;;;;;5092523;28;20127;-35
2023/06/23 01:02:59;;;;;;;3.40;2.25;;;23.70;76.90;;;;;;5092494;28;20048;-36
2023/06/23 01:05:27;;;;;;;4.93;2.05;;;23.60;75.90;;;;;;5072341;28;20047;-38
2023/06/23 01:07:57;;;;;;;2.80;2.00;;;23.20;77.40;;;;;;5072560;28;20132;-39
2023/06/23 01:10:30;;;;;;;2.72;2.00;;;23.50;77.30;;;;;;5072265;28;20044;-40
2023/06/23 01:12:59;;;;;;;2.38;1.90;;;23.00;76.90;;;;;;5072056;28;20131;-36
2023/06/23 01:15:30;;;;;;;3.17;2.10;;;23.60;62.70;;;;;;5072354;28;20045;-37
2023/06/23 01:18:02;;;;;;;3.00;2.33;;;23.30;61.90;;;;;;5092097;28;20444;-35
2023/06/23 01:20:29;;;;;;;2.50;2.10;;;23.30;62.00;;;;;;5092704;28;20139;-38
2023/06/23 01:23:08;;;;;;;2.95;2.20;;;22.60;71.20;;;;;;5092219;28;20131;-36
2023/06/23 01:25:41;;;;;;;2.88;2.13;;;23.10;76.90;;;;;;5073615;28;20123;-36
2023/06/23 01:28:28;;;;;;;4.53;2.20;;;23.30;76.60;;;;;;5071889;28;20127;-35
2023/06/23 01:30:55;;;;;;;2.50;2.10;;;23.20;76.70;;;;;;5072358;28;20140;-35
2023/06/23 01:33:24;;;;;;;3.40;2.22;;;23.30;61.90;;;;;;5071853;28;20051;-39
2023/06/23 01:35:54;;;;;;;3.10;2.15;;;23.10;76.90;;;;;;5071489;28;20561;-36
2023/06/23 01:38:23;;;;;;;3.47;2.28;;;22.90;77.30;;;;;;5092078;28;20416;-39
2023/06/23 01:40:52;;;;;;;2.75;2.10;;;24.20;77.90;;;;;;5092040;28;20134;-39
2023/06/23 01:43:19;;;;;;;2.95;2.10;;;23.10;75.20;;;;;;5090180;28;20051;-38
2023/06/23 01:45:47;;;;;;;3.15;2.00;;;23.10;76.70;;;;;;5071787;28;20515;-37
2023/06/23 01:48:13;;;;;;;2.70;2.22;;;23.60;77.30;;;;;;5071869;28;20485;-40
2023/06/23 01:50:42;;;;;;;3.45;1.95;;;22.60;76.40;;;;;;5090267;28;20062;-38
2023/06/23 01:53:09;;;;;;;2.55;2.05;;;;;;;;;;5091767;28;20078;-35
2023/06/23 01:55:37;;;;;;;2.20;2.00;;;23.60;74.30;;;;;;5071892;28;20453;-37
2023/06/23 01:58:03;;;;;;;4.05;2.08;;;23.20;76.70;;;;;;5071451;28;20054;-39
2023/06/23 02:00:30;;;;;;;2.97;2.05;;;23.30;77.40;;;;;;5071798;28;20048;-39
2023/06/23 02:02:58;;;;;;;2.70;2.05;;;23.30;61.90;;;;;;5071300;28;20056;-34
2023/06/23 02:05:26;;;;;;;4.43;2.10;;;23.30;61.90;;;;;;5071897;28;20448;-37
2023/06/23 02:07:53;;;;;;;3.83;2.25;;;;;;;;;;5071670;28;20132;-38
2023/06/23 02:10:19;;;;;;;2.80;2.17;;;23.60;70.50;;;;;;5071797;28;20080;-37
2023/06/23 02:12:46;;;;;;;4.13;2.03;;;23.00;76.60;;;;;;5080675;28;20046;-36
2023/06/23 02:15:14;;;;;;;3.65;2.15;;;23.40;77.70;;;;;;5074992;28;20054;-35
2023/06/23 02:17:40;;;;;;;4.28;2.22;;;24.10;77.30;;;;;;5071834;28;20074;-36
2023/06/23 02:20:16;;;;;;;5.25;2.92;;;23.20;61.90;;;;;;5071869;28;20139;-33
2023/06/23 02:22:44;;;;;;;2.85;2.17;;;22.70;77.30;;;;;;5071346;28;20131;-37
2023/06/23 02:25:12;;;;;;;2.92;1.95;;;;;;;;;;5071661;28;20044;-35
2023/06/23 02:27:39;;;;;;;3.17;2.03;;;;;;;;;;5071647;28;20055;-38
2023/06/23 02:30:07;;;;;;;3.20;2.00;;;23.20;61.90;;;;;;5071533;28;20139;-36
2023/06/23 02:32:34;;;;;;;2.85;2.20;;;23.00;69.20;;;;;;5071203;28;20550;-37
2023/06/23 02:35:01;;;;;;;2.58;2.08;;;23.00;77.00;;;;;;5071006;28;20131;-39
2023/06/23 02:37:29;;;;;;;3.45;2.20;;;23.90;77.10;;;;;;5084686;28;20135;-39
2023/06/23 02:39:58;;;;;;;3.08;2.30;;;23.00;76.60;;;;;;5091645;28;20054;-36
2023/06/23 02:42:29;;;;;;;3.03;2.10;;;23.20;61.90;;;;;;5091143;28;20048;-34
2023/06/23 02:44:58;;;;;;;2.45;2.03;;;22.90;76.90;;;;;;5077934;28;20055;-35
2023/06/23 02:47:24;;;;;;;3.45;1.95;;;23.20;61.90;;;;;;5071270;28;20131;-34
2023/06/23 02:49:52;;;;;;;2.60;2.15;;;22.30;76.60;;;;;;5083338;28;20127;-37
2023/06/23 02:52:19;;;;;;;3.03;2.22;;;22.90;68.30;;;;;;5091169;28;20080;-39
2023/06/23 02:54:49;;;;;;;2.78;2.00;;;23.50;76.90;;;;;;5090860;28;20044;-36
2023/06/23 02:57:16;;;;;;;2.80;2.10;;;23.60;77.00;;;;;;5091488;28;20124;-39
2023/06/23 02:59:44;;;;;;;3.38;1.92;;;22.40;76.50;;;;;;5091303;28;20503;-35
2023/06/23 03:02:10;;;;;;;3.78;2.30;;;23.20;61.90;;;;;;5090899;28;20131;-32
2023/06/23 03:04:38;;;;;;;2.80;2.10;;;23.00;74.30;;;;;;5091116;28;20126;-36
2023/06/23 03:07:06;;;;;;;3.28;1.92;;;24.00;67.00;;;;;;5091474;28;20048;-36
2023/06/23 03:09:34;;;;;;;2.85;2.10;;;;;;;;;;5092736;28;20121;-38
2023/06/23 03:12:02;;;;;;;4.85;2.38;;;23.60;77.50;;;;;;5078054;28;20528;-38
2023/06/23 03:14:28;;;;;;;2.92;2.00;;;23.20;76.80;;;;;;5074040;28;20048;-39
2023/06/23 03:17:00;;;;;;;2.45;2.05;;;23.10;61.80;;;;;;5074868;28;20131;-37
2023/06/23 03:19:36;;;;;;;3.13;2.03;;;22.90;76.70;;;;;;5074543;28;20497;-39
2023/06/23 03:22:07;;;;;;;2.60;2.03;;;22.90;77.10;;;;;;5074461;28;20519;-38
2023/06/23 03:24:34;;;;;;;2.70;2.00;;;;;;;;;;5073883;28;20497;-34
2023/06/23 03:27:03;;;;;;;3.13;2.28;;;23.20;76.80;;;;;;5074304;28;20076;-37
2023/06/23 03:29:31;;;;;;;2.42;2.00;;;23.20;69.60;;;;;;5074057;28;20494;-38
2023/06/23 03:31:58;;;;;;;3.55;2.35;;;;;;;;;;5073999;28;20052;-35
2023/06/23 03:34:25;;;;;;;4.90;2.05;;;22.80;76.60;;;;;;5078055;28;20402;-35
2023/06/23 03:36:52;;;;;;;3.08;2.50;;;22.60;76.60;;;;;;5082203;28;20123;-37
2023/06/23 03:39:21;;;;;;;6.07;2.40;;;23.30;68.40;;;;;;5094155;28;20485;-36
2023/06/23 03:41:47;;;;;;;3.55;2.47;;;24.20;77.40;;;;;;5079574;28;20048;-39
2023/06/23 03:44:27;;;;;;;3.22;2.50;;;22.80;66.20;;;;;;5072622;28;20052;-35
2023/06/23 03:46:56;;;;;;;3.55;2.17;;;23.10;61.80;;;;;;5073725;28;20058;-36
2023/06/23 03:49:27;;;;;;;2.72;2.28;;;23.20;77.30;;;;;;5081845;28;20052;-37
2023/06/23 03:51:54;;;;;;;5.03;2.40;;;;;;;;;;5093211;28;20131;-33
2023/06/23 03:54:21;;;;;;;3.83;2.30;;;22.60;76.00;;;;;;5093694;28;20130;-36
2023/06/23 03:56:48;;;;;;;2.47;2.05;;;;;;;;;;5093904;28;20051;-36
2023/06/23 03:59:16;;;;;;;3.45;2.28;;;23.10;61.80;;;;;;5094100;28;20123;-35
2023/06/23 04:01:43;;;;;;;2.33;2.10;;;22.50;71.80;;;;;;5093322;28;20044;-36
2023/06/23 04:04:10;;;;;;;3.03;2.42;;;23.50;77.40;;;;;;5093604;28;20135;-37
2023/06/23 04:06:37;;;;;;;3.20;2.25;;;;;;;;;;5093979;28;20211;-38
2023/06/23 04:09:03;;;;;;;3.15;2.50;;;23.10;76.80;;;;;;5093793;28;20127;-36
2023/06/23 04:11:30;;;;;;;3.05;2.40;;;23.70;78.00;;;;;;5082641;28;20135;-38
2023/06/23 04:13:57;;;;;;;2.88;2.50;;;;;;;;;;5072996;28;20132;-33
2023/06/23 04:16:25;;;;;;;2.30;2.10;;;23.80;77.10;;;;;;5075570;28;20516;-40
2023/06/23 04:18:52;;;;;;;2.42;2.17;;;22.90;77.10;;;;;;5093568;28;20136;-39
2023/06/23 04:21:19;;;;;;;3.78;2.80;;;22.70;76.70;;;;;;5083878;28;20629;-36
2023/06/23 04:23:45;;;;;;;3.05;1.98;;;23.10;67.40;;;;;;5073940;28;20152;-35
2023/06/23 04:26:12;;;;;;;3.22;2.42;;;23.10;77.10;;;;;;5083951;28;20119;-35
2023/06/23 04:28:40;;;;;;;2.65;2.40;;;23.10;61.80;;;;;;5082985;28;20123;-34
2023/06/23 04:31:07;;;;;;;2.95;2.53;;;22.90;77.10;;;;;;5072270;28;20049;-36
2023/06/23 04:33:36;;;;;;;2.60;2.30;;;23.40;64.90;;;;;;5071957;28;20051;-35
2023/06/23 04:36:12;;;;;;;2.20;1.92;;;23.10;76.90;;;;;;5072931;28;20056;-36
2023/06/23 04:38:39;;;;;;;2.40;2.20;;;;;;;;;;5080849;28;20502;-35
2023/06/23 04:41:08;;;;;;;3.10;2.30;;;23.00;61.70;;;;;;5081203;28;20514;-37
2023/06/23 04:43:37;;;;;;;4.03;2.53;;;23.00;76.90;;;;;;5081687;28;20044;-36
2023/06/23 04:46:08;;;;;;;3.00;2.03;;;24.00;67.70;;;;;;5081301;28;20077;-35
2023/06/23 04:48:37;;;;;;;3.08;2.30;;;22.90;66.60;;;;;;5083366;28;20044;-36
2023/06/23 04:51:05;;;;;;;2.67;2.30;;;22.50;77.40;;;;;;5080523;28;20044;-38
2023/06/23 04:53:33;;;;;;;2.75;2.20;;;23.00;61.70;;;;;;5082225;28;20386;-35
2023/06/23 04:56:03;;;;;;;2.78;2.28;;;22.80;76.80;;;;;;5081270;28;20127;-36
2023/06/23 04:58:32;;;;;;;4.55;2.60;;;22.90;77.10;;;;;;5082419;28;20074;-35
2023/06/23 05:00:59;;;;;;;2.95;2.20;;;;;;;;;;5085006;28;20171;-35
2023/06/23 05:03:26;;;;;;;2.95;2.20;;;;;;;;;;5081232;28;20052;-37
2023/06/23 05:05:57;;;;;;;5.50;2.60;;;22.80;67.20;;;;;;5082052;28;20039;-36
2023/06/23 05:08:25;;;;;;;2.45;2.25;;;22.50;76.60;;;;;;5081180;28;20048;-36
2023/06/23 05:10:51;;;;;;;2.65;2.40;;;22.30;76.80;;;;;;5081605;28;20047;-38
2023/06/23 05:13:19;;;;;;;2.50;2.10;;;;;;;;;;5079699;28;20039;-37
2023/06/23 05:15:46;;;;;;;3.28;2.42;;;22.70;77.10;;;;;;5082711;28;20044;-39
2023/06/23 05:18:13;;;;;;;2.45;2.25;;;;;;;;;;5082237;28;20493;-35
2023/06/23 05:20:40;;;;;;;3.30;2.55;;;23.10;73.60;;;;;;5080322;28;20489;-36
2023/06/23 05:23:08;;;;;;;2.90;2.08;;;22.80;76.70;;;;;;5080925;28;20045;-38
2023/06/23 05:25:35;;;;;;;2.65;2.15;;;24.00;78.10;;;;;;5081283;28;20047;-38
2023/06/23 05:28:02;;;;;;;3.75;2.35;;;23.70;72.70;;;;;;5085819;28;20126;-35
2023/06/23 05:30:29;;;;;;;4.07;2.50;;;22.90;77.60;;;;;;5092301;28;20418;-39
2023/06/23 05:32:56;;;;;;;4.00;2.20;;;23.10;67.90;;;;;;5091368;28;20127;-38
2023/06/23 05:35:24;;;;;;;4.10;2.58;;;;;;;;;;5092072;28;20071;-34
2023/06/23 05:37:50;;;;;;;3.25;2.40;;;22.80;76.80;;;;;;5091507;28;20083;-37
2023/06/23 05:40:18;;;;;;;5.22;2.70;;;22.80;77.20;;;;;;5088600;28;20435;-40
2023/06/23 05:42:45;;;;;;;4.80;2.72;;;;;;;;;;5079624;28;20075;-35
2023/06/23 05:45:12;;;;;;;4.53;3.00;;;23.30;73.40;;;;;;5081730;28;20048;-35
2023/06/23 05:47:42;;;;;;;6.13;3.08;;;22.60;63.30;;;;;;5080720;28;20063;-37
2023/06/23 05:50:20;;;;;;;5.50;2.80;;;23.50;77.80;;;;;;5083566;28;20053;-37
2023/06/23 05:52:51;;;;;;;4.13;3.10;;;22.70;72.70;;;;;;5078683;28;20119;-38
2023/06/23 05:55:19;;;;;;;4.28;2.72;;;23.20;77.40;;;;;;5080477;28;20052;-39
2023/06/23 05:57:47;;;;;;;8.30;3.00;;;;;;;;;;5078068;28;20127;-37
2023/06/23 06:00:14;;;;;;;4.30;2.80;;;22.40;78.00;;;;;;5080982;28;20524;-38
2023/06/23 06:02:43;;;;;;;6.03;2.97;;;23.80;77.90;;;;;;5079464;28;20115;-39
2023/06/23 06:05:11;;;;;;;6.03;3.10;;;23.00;77.70;;;;;;5081653;28;20135;-40
2023/06/23 06:07:38;;;;;;;5.35;3.22;;;23.80;78.10;;;;;;5082368;28;20049;-36
2023/06/23 06:10:07;;;;;;;4.30;3.10;;;22.30;77.30;;;;;;5080366;28;20551;-36
2023/06/23 06:12:35;;;;;;;6.60;3.50;;;22.50;75.60;;;;;;5079913;28;20523;-35
2023/06/23 06:15:02;;;;;;;4.97;3.17;;;23.40;78.70;;;;;;5080147;28;20448;-37
2023/06/23 06:17:29;;;;;;;5.53;3.22;;;23.30;77.30;;;;;;5081298;28;20123;-37
2023/06/23 06:19:59;;;;;;;6.00;3.22;;;21.80;71.80;;;;;;5081884;28;20128;-36
2023/06/23 06:22:26;;;;;;;8.85;3.38;;;24.00;78.40;;;;;;5079081;28;20075;-40
2023/06/23 06:24:53;;;;;;;6.80;3.60;;;22.70;77.80;;;;;;5081423;28;20045;-39
2023/06/23 06:27:19;;;;;;;5.38;3.28;;;24.00;72.80;;;;;;5074560;28;20150;-37
2023/06/23 06:29:48;;;;;;;6.45;3.10;;;23.30;78.50;;;;;;5071820;28;20131;-38
2023/06/23 06:32:14;;;;;;;5.68;3.28;;;22.30;77.70;;;;;;5071131;28;20052;-38
2023/06/23 06:34:41;;;;;;;5.45;3.20;;;;;;;;;;5071142;28;20135;-35
2023/06/23 06:37:08;;;;;;;5.03;3.10;;;23.90;78.90;;;;;;5081873;28;20040;-35
2023/06/23 06:39:35;;;;;;;8.55;3.67;;;;;;;;;;5088361;28;20055;-36
2023/06/23 06:42:02;;;;;;;5.78;3.40;;;23.30;76.30;;;;;;5077441;28;20052;-36
2023/06/23 06:44:29;;;;;;;4.72;3.47;;;23.30;78.40;;;;;;5083273;28;20076;-38
2023/06/23 06:46:57;;;;;;;5.97;3.38;;;22.90;63.10;;;;;;5084611;28;20576;-37
2023/06/23 06:49:24;;;;;;;4.63;3.35;;;;;;;;;;5085569;28;20131;-33
2023/06/23 06:51:52;;;;;;;6.60;3.33;;;24.00;78.80;;;;;;5080280;28;20059;-39
2023/06/23 06:54:18;;;;;;;7.53;3.83;;;22.00;72.60;;;;;;5078741;28;20037;-38
2023/06/23 06:56:45;;;;;;;5.35;3.20;;;23.10;78.40;;;;;;5089513;28;20047;-32
2023/06/23 06:59:12;;;;;;;5.05;3.10;;;21.70;70.70;;;;;;5076366;28;20567;-31
2023/06/23 07:01:39;;;;;;;7.00;4.20;;;22.10;69.40;;;;;;5086794;28;20091;-33
2023/06/23 07:04:07;;;;;;;5.72;3.83;;;22.60;79.00;;;;;;5074324;28;20131;-31
2023/06/23 07:06:36;;;;;;;5.68;3.85;;;23.20;78.50;;;;;;5074198;28;20139;-30
2023/06/23 07:09:03;;;;;;;5.35;3.50;;;22.80;76.90;;;;;;5074462;28;20048;-31
2023/06/23 07:11:31;;;;;;;6.57;4.10;;;22.60;78.70;;;;;;5074524;28;20045;-31
2023/06/23 07:13:58;;;;;;;8.48;3.83;;;;;;;;;;5074015;28;20055;-32
2023/06/23 07:16:30;;;;;;;5.47;3.95;;;22.00;77.90;;;;;;5074230;28;20127;-31
2023/06/23 07:18:57;;;;;;;6.00;3.97;;;;;;;;;;5074645;28;20090;-35
2023/06/23 07:21:25;;;;;;;5.95;4.20;;;22.60;79.10;;;;;;5074460;28;20071;-32
2023/06/23 07:23:52;;;;;;;5.35;3.85;;;23.20;76.40;;;;;;5073724;28;20056;-31
2023/06/23 07:26:18;;;;;;;7.72;3.95;;;23.50;78.80;;;;;;5073924;28;20565;-30
2023/06/23 07:28:46;;;;;;;7.18;3.92;;;;;;;;;;5073922;28;20132;-33
2023/06/23 07:31:12;;;;;;;5.35;4.30;;;22.90;79.30;;;;;;5074195;28;20127;-31
2023/06/23 07:33:40;;;;;;;6.05;4.07;;;22.90;63.40;;;;;;5073758;28;20055;-34
2023/06/23 07:36:07;;;;;;;4.60;3.55;;;;;;;;;;5076255;28;20123;-35
2023/06/23 07:38:35;;;;;;;6.88;3.83;;;22.80;66.60;;;;;;5086089;28;20127;-30
2023/06/23 07:41:03;;;;;;;7.07;3.95;;;23.30;78.70;;;;;;5074271;28;20045;-31
2023/06/23 07:43:30;;;;;;;8.13;3.55;;;;;;;;;;5075019;28;20063;-35
2023/06/23 07:45:56;;;;;;;4.57;3.50;;;22.60;78.30;;;;;;5092573;28;20054;-31
2023/06/23 07:48:23;;;;;;;4.22;3.10;;;24.00;74.20;;;;;;5092559;28;20044;-31
2023/06/23 07:50:50;;;;;;;6.35;3.05;;;;;;;;;;5086182;28;20421;-33
2023/06/23 07:53:17;;;;;;;4.50;3.00;;;22.80;78.20;;;;;;5077387;28;20156;-31
2023/06/23 07:55:45;;;;;;;5.35;3.00;;;23.10;79.10;;;;;;5088854;28;20123;-32
2023/06/23 07:58:12;;;;;;;5.10;3.30;;;;;;;;;;5091445;28;20052;-32
2023/06/23 08:00:39;;;;;;;5.15;3.38;;;23.40;78.50;;;;;;5073833;28;20044;-30
2023/06/23 08:03:06;;;;;;;5.10;2.85;;;22.90;78.50;;;;;;5073619;28;20083;-30
2023/06/23 08:05:33;;;;;;;7.35;3.05;;;;;;;;;;5075939;28;20153;-32
2023/06/23 08:08:00;;;;;;;4.88;3.30;;;22.90;78.90;;;;;;5086427;28;20067;-40
2023/06/23 08:10:26;;;;;;;4.20;2.92;;;22.30;66.50;;;;;;5093083;28;20560;-37
2023/06/23 08:12:54;;;;;;;4.20;2.78;;;23.00;78.80;;;;;;5085447;28;20079;-40
2023/06/23 08:15:21;;;;;;;4.70;2.95;;;23.00;77.90;;;;;;5073380;28;20044;-40
2023/06/23 08:17:48;;;;;;;3.92;2.50;;;23.50;78.20;;;;;;5073377;28;20087;-40
2023/06/23 08:20:15;;;;;;;3.67;2.85;;;;;;;;;;5080837;28;20455;-35
2023/06/23 08:22:42;;;;;;;4.10;2.80;;;23.10;78.50;;;;;;5091015;28;20044;-40
2023/06/23 08:25:09;;;;;;;6.95;2.90;;;23.10;62.80;;;;;;5091443;28;20487;-38
2023/06/23 08:27:36;;;;;;;4.38;3.05;;;22.70;78.30;;;;;;5083661;28;20044;-40
2023/06/23 08:30:05;;;;;;;3.95;2.60;;;23.10;62.80;;;;;;5075555;28;20062;-37
2023/06/23 08:32:32;;;;;;;4.13;3.00;;;22.80;77.90;;;;;;5080818;28;20131;-40
2023/06/23 08:34:59;;;;;;;4.38;2.88;;;22.50;78.40;;;;;;5089428;28;20102;-40
2023/06/23 08:37:26;;;;;;;5.53;3.00;;;23.00;77.60;;;;;;5092063;28;20132;-36
2023/06/23 08:39:53;;;;;;;3.78;2.80;;;22.30;77.40;;;;;;5093020;28;20131;-40
2023/06/23 08:42:20;;;;;;;3.90;2.65;;;;;;;;;;5092103;28;20052;-38
2023/06/23 08:44:46;;;;;;;3.80;2.70;;;24.20;78.40;;;;;;5093155;28;20058;-40
2023/06/23 08:47:15;;;;;;;4.60;2.70;;;22.90;77.70;;;;;;5092933;28;20044;-40
2023/06/23 08:49:42;;;;;;;5.22;3.00;;;22.70;78.50;;;;;;5092998;28;20517;-39
2023/06/23 08:52:09;;;;;;;5.03;2.70;;;22.90;77.70;;;;;;5092177;28;20135;-40
2023/06/23 08:54:36;;;;;;;3.20;2.50;;;;;;;;;;5093146;28;20127;-36
2023/06/23 08:57:04;;;;;;;3.95;2.70;;;22.90;64.10;;;;;;5092926;28;20051;-39
2023/06/23 08:59:31;;;;;;;3.65;2.63;;;22.70;77.60;;;;;;5092876;28;20414;-40
2023/06/23 09:01:58;;;;;;;3.65;2.70;;;24.10;78.60;;;;;;5084363;28;20051;-39
2023/06/23 09:04:26;;;;;;;6.25;2.85;;;23.20;62.90;;;;;;5085201;28;20044;-40
2023/06/23 09:06:53;;;;;;;3.20;2.90;;;22.90;68.20;;;;;;5091698;28;20123;-38
2023/06/23 09:09:20;;;;;;;3.75;2.63;;;22.60;77.30;;;;;;5092670;28;20127;-40
2023/06/23 09:11:47;;;;;;;4.80;2.70;;;;;;;;;;5085962;28;20408;-36
2023/06/23 09:14:13;;;;;;;5.93;2.70;;;23.10;78.40;;;;;;5072197;28;20053;-40
2023/06/23 09:16:40;;;;;;;3.20;2.55;;;23.00;77.80;;;;;;5072322;28;20128;-32
2023/06/23 09:19:07;;;;;;;4.07;2.72;;;22.90;76.10;;;;;;5072232;28;20102;-31
2023/06/23 09:21:36;;;;;;;2.85;2.28;;;23.70;77.80;;;;;;5073321;28;20391;-31
2023/06/23 09:24:03;;;;;;;4.97;2.70;;;23.90;66.80;;;;;;5071811;28;20059;-32
2023/06/23 09:26:30;;;;;;;4.28;2.28;;;23.60;78.10;;;;;;5072347;28;20054;-31
2023/06/23 09:29:15;;;;;;;3.20;2.47;;;23.30;62.60;;;;;;5072036;28;20136;-35
2023/06/23 09:31:42;;;;;;;5.07;2.67;;;23.50;78.50;;;;;;5077267;28;20047;-31
2023/06/23 09:34:09;;;;;;;3.42;2.70;;;;;;;;;;5092248;28;20127;-33
2023/06/23 09:36:37;;;;;;;3.25;2.70;;;23.30;77.60;;;;;;5091701;28;20055;-33
2023/06/23 09:39:04;;;;;;;4.78;2.55;;;23.80;78.00;;;;;;5092312;28;20416;-31
2023/06/23 09:41:32;;;;;;;4.15;2.60;;;23.40;62.50;;;;;;5091271;28;20067;-34
2023/06/23 09:43:59;;;;;;;3.42;2.38;;;23.20;76.70;;;;;;5091823;28;20087;-31
2023/06/23 09:46:27;;;;;;;3.83;2.42;;;;;;;;;;5092044;28;20054;-35
2023/06/23 09:48:54;;;;;;;3.85;2.53;;;23.30;76.00;;;;;;5092172;28;20125;-32
2023/06/23 09:51:21;;;;;;;3.03;2.50;;;23.60;77.30;;;;;;5091388;28;20131;-30
2023/06/23 09:53:49;;;;;;;2.63;2.28;;;23.30;62.60;;;;;;5091642;28;20408;-34
2023/06/23 09:56:16;;;;;;;3.17;2.70;;;23.70;66.20;;;;;;5091949;28;20492;-35
2023/06/23 09:58:43;;;;;;;3.10;2.42;;;23.00;77.20;;;;;;5091720;28;20051;-30
2023/06/23 10:01:11;;;;;;;3.50;2.47;;;23.50;62.20;;;;;;5091848;28;20098;-35
2023/06/23 10:03:44;;;;;;;4.07;2.30;;;23.50;62.20;;;;;;5076140;28;20044;-35
2023/06/23 10:06:21;;;;;;;3.40;2.58;;;23.60;77.40;;;;;;5092087;28;20066;-31
2023/06/23 10:08:51;;;;;;;3.40;2.50;;;23.50;62.20;;;;;;5091988;28;20048;-34
2023/06/23 10:11:19;;;;;;;3.17;2.47;;;;;;;;;;5091923;28;20567;-34
2023/06/23 10:13:46;;;;;;;3.17;2.70;;;22.70;77.40;;;;;;5087087;28;20075;-32
2023/06/23 10:16:13;;;;;;;3.10;2.47;;;23.40;67.90;;;;;;5082178;28;20049;-32
2023/06/23 10:18:40;;;;;;;3.15;2.65;;;23.70;76.90;;;;;;5078553;28;20054;-40
2023/06/23 10:21:07;;;;;;;3.95;2.78;;;;;;;;;;5092292;28;20140;-36
2023/06/23 10:23:34;;;;;;;3.15;2.30;;;23.80;77.30;;;;;;5095413;28;20079;-40
2023/06/23 10:26:02;;;;;;;2.80;2.50;;;23.30;77.50;;;;;;5096086;28;20127;-40
2023/06/23 10:28:28;;;;;;;3.75;2.60;;;23.40;76.70;;;;;;5091269;28;20675;-39
2023/06/23 10:30:55;;;;;;;2.97;2.42;;;23.60;70.00;;;;;;5084708;28;20139;-40
2023/06/23 10:33:22;;;;;;;4.43;2.30;;;24.40;77.20;;;;;;5077941;28;20062;-40
2023/06/23 10:35:49;;;;;;;3.78;2.70;;;;;;;;;;5083154;28;20335;-33
2023/06/23 10:38:18;;;;;;;2.90;2.35;;;23.90;77.60;;;;;;5082208;28;20044;-39
2023/06/23 10:40:51;;;;;;;3.05;2.55;;;23.60;61.80;;;;;;5083717;28;20127;-37
2023/06/23 10:43:20;;;;;;;2.92;2.60;;;23.90;75.50;;;;;;5084527;28;20131;-38
2023/06/23 10:45:48;;;;;;;3.13;2.47;;;23.70;61.90;;;;;;5084969;28;20051;-35
2023/06/23 10:48:14;;;;;;;3.08;2.42;;;23.30;76.40;;;;;;5085497;28;20046;-40
2023/06/23 10:50:41;;;;;;;3.33;2.50;;;23.80;77.00;;;;;;5095379;28;20048;-38
2023/06/23 10:53:12;;;;;;;4.35;2.58;;;23.70;61.90;;;;;;5088051;28;20052;-37
2023/06/23 10:55:40;;;;;;;2.63;2.30;;;23.70;77.00;;;;;;5084814;28;20129;-39
2023/06/23 10:58:11;;;;;;;4.25;2.97;;;23.60;76.60;;;;;;5084373;28;20475;-39
2023/06/23 11:00:39;;;;;;;2.50;2.00;;;23.70;61.80;;;;;;5084822;28;20128;-35
2023/06/23 11:03:09;;;;;;;6.13;2.50;;;23.70;61.80;;;;;;5083815;28;20048;-37
2023/06/23 11:05:40;;;;;;;3.20;2.40;;;23.40;61.90;;;;;;5083244;28;20472;-31
2023/06/23 11:08:10;;;;;;;2.80;2.22;;;23.50;76.60;;;;;;5095228;28;20127;-31
2023/06/23 11:10:57;;;;;;;3.10;2.28;;;23.50;67.90;;;;;;5095032;28;20139;-32
2023/06/23 11:13:25;;;;;;;3.90;2.17;;;23.80;61.90;;;;;;5094210;28;20115;-34
2023/06/23 11:15:55;;;;;;;2.90;2.38;;;23.80;61.90;;;;;;5094990;28;20071;-34
2023/06/23 11:18:22;;;;;;;2.50;2.30;;;24.50;77.50;;;;;;5090055;28;20053;-30
2023/06/23 11:20:50;;;;;;;5.05;2.55;;;23.20;76.20;;;;;;5084238;28;20056;-31
2023/06/23 11:23:17;;;;;;;3.00;2.60;;;22.90;70.00;;;;;;5083691;28;20044;-31
2023/06/23 11:25:46;;;;;;;2.78;2.47;;;23.90;69.10;;;;;;5085073;28;20214;-31
2023/06/23 11:28:28;;;;;;;3.42;2.35;;;23.80;61.80;;;;;;5083780;28;20431;-34
2023/06/23 11:31:03;;;;;;;4.38;2.10;;;23.90;76.70;;;;;;5090043;28;20623;-31
2023/06/23 11:33:30;;;;;;;3.25;2.40;;;24.10;76.60;;;;;;5072451;28;20045;-30
2023/06/23 11:36:00;;;;;;;2.92;2.30;;;23.80;73.00;;;;;;5088879;28;20127;-30
2023/06/23 11:38:27;;;;;;;2.70;2.33;;;24.00;75.10;;;;;;5082173;28;20046;-31
2023/06/23 11:40:53;;;;;;;3.00;2.50;;;24.10;70.10;;;;;;5094099;28;20052;-31
2023/06/23 11:43:20;;;;;;;2.85;2.20;;;24.80;77.10;;;;;;5083782;28;20123;-32
2023/06/23 11:45:47;;;;;;;3.03;2.30;;;23.70;77.40;;;;;;5074205;28;20408;-31
2023/06/23 11:48:15;;;;;;;2.60;2.20;;;24.60;77.60;;;;;;5074259;28;20047;-30
2023/06/23 11:50:42;;;;;;;2.42;2.10;;;24.30;77.50;;;;;;5093022;28;20078;-30
2023/06/23 11:53:09;;;;;;;2.58;2.10;;;23.10;76.10;;;;;;5091420;28;20150;-30
2023/06/23 11:55:36;;;;;;;3.05;2.50;;;23.40;69.00;;;;;;5083900;28;20135;-32
2023/06/23 11:58:03;;;;;;;2.60;2.20;;;23.80;76.50;;;;;;5082692;28;20123;-33
2023/06/23 12:00:30;;;;;;;2.45;2.10;;;23.70;67.70;;;;;;5085160;28;20047;-32
2023/06/23 12:02:59;;;;;;;3.17;2.30;;;23.70;76.40;;;;;;5088130;28;20058;-31
2023/06/23 12:05:27;;;;;;;4.25;2.63;;;23.90;61.70;;;;;;5086787;28;20123;-35
2023/06/23 12:07:55;;;;;;;3.65;2.42;;;23.80;74.00;;;;;;5090838;28;20040;-36
2023/06/23 12:10:24;;;;;;;2.20;2.00;;;;;;;;;;5094106;28;20052;-34
2023/06/23 12:12:53;;;;;;;3.67;2.30;;;24.00;61.80;;;;;;5093314;28;20052;-35
2023/06/23 12:15:22;;;;;;;2.92;2.47;;;24.40;76.70;;;;;;5093931;28;20093;-39
2023/06/23 12:17:49;;;;;;;3.53;2.30;;;;;;;;;;5092757;28;20127;-37
2023/06/23 12:20:18;;;;;;;2.95;2.38;;;23.90;65.30;;;;;;5092146;28;20130;-36
2023/06/23 12:22:48;;;;;;;2.15;1.95;;;24.20;76.80;;;;;;5093034;28;20048;-37
2023/06/23 12:25:15;;;;;;;3.20;2.17;;;23.60;69.30;;;;;;5093516;28;20568;-39
2023/06/23 12:27:50;;;;;;;4.82;2.28;;;24.60;77.00;;;;;;5093535;28;20123;-36
2023/06/23 12:30:17;;;;;;;2.83;2.30;;;;;;;;;;5093603;28;20130;-34
2023/06/23 12:32:43;;;;;;;4.28;2.38;;;24.00;77.10;;;;;;5092904;28;20543;-36
2023/06/23 12:35:10;;;;;;;3.22;2.40;;;24.00;77.10;;;;;;5093402;28;20135;-37
2023/06/23 12:37:44;;;;;;;2.42;2.08;;;23.90;75.50;;;;;;5092661;28;20044;-38
2023/06/23 12:40:28;;;;;;;3.17;1.83;;;23.90;76.20;;;;;;5093460;28;20059;-37
2023/06/23 12:42:56;;;;;;;3.17;2.38;;;24.00;61.80;;;;;;5092892;28;20055;-35
2023/06/23 12:45:24;;;;;;;2.90;2.30;;;24.70;76.70;;;;;;5093212;28;20048;-30
2023/06/23 12:47:52;;;;;;;2.45;2.05;;;;;;;;;;5092923;28;20048;-31
2023/06/23 12:50:26;;;;;;;4.20;2.10;;;24.00;61.70;;;;;;5093287;28;20101;-34
2023/06/23 12:52:54;;;;;;;2.27;2.03;;;;;;;;;;5087526;28;20059;-36
2023/06/23 12:55:22;;;;;;;2.38;2.17;;;24.30;77.20;;;;;;5083808;28;20131;-31
2023/06/23 12:57:49;;;;;;;2.25;1.95;;;24.50;76.50;;;;;;5081811;28;20143;-31
2023/06/23 13:00:17;;;;;;;3.20;2.40;;;24.10;76.90;;;;;;5089310;28;20044;-31
2023/06/23 13:02:44;;;;;;;2.70;2.33;;;23.60;75.20;;;;;;5092637;28;20047;-31
2023/06/23 13:05:11;;;;;;;2.33;2.10;;;23.90;76.60;;;;;;5092790;28;20048;-30
2023/06/23 13:07:38;;;;;;;2.80;2.25;;;;;;;;;;5092671;28;20603;-34
2023/06/23 13:10:06;;;;;;;2.60;2.17;;;24.10;61.60;;;;;;5091982;28;20055;-38